Time;durP1;ratioP1;P1;durP2;ratioP2;P2;SDS_P1;SDS_P2;PMS_P1;PMS_P2;Temp;Humidity;BMP_temperature;BMP_pressure;BME280_temperature;BME280_humidity;BME280_pressure;Samples;Min_cycle;Max_cycle;Signal;HPM_P1;HPM_P2
2022/05/19 00:01:30;;;;;;;4.53;3.60;;;17.00;99.90;;;;;;5013176;28;20181;-89
2022/05/19 00:03:56;;;;;;;4.37;3.97;;;16.80;99.90;;;;;;5014481;28;20639;-89
2022/05/19 00:06:22;;;;;;;5.00;4.30;;;16.70;99.90;;;;;;5023164;28;20213;-89
2022/05/19 00:08:47;;;;;;;5.50;4.43;;;16.70;99.90;;;;;;5014640;28;20198;-90
2022/05/19 00:11:17;;;;;;;5.20;4.27;;;16.60;99.90;;;;;;5034230;28;20185;-89
2022/05/19 00:13:43;;;;;;;4.33;3.93;;;16.60;99.90;;;;;;5033645;28;20267;-89
2022/05/19 00:16:25;;;;;;;4.37;4.00;;;16.70;99.90;;;;;;5020910;28;20203;-89
2022/05/19 00:18:51;;;;;;;4.27;3.60;;;16.70;99.90;;;;;;5018841;28;20208;-90
2022/05/19 00:21:17;;;;;;;5.03;4.10;;;16.80;99.90;;;;;;5019348;28;20654;-89
2022/05/19 00:23:43;;;;;;;5.70;4.03;;;16.80;99.90;;;;;;5021505;28;20174;-89
2022/05/19 00:26:09;;;;;;;5.27;3.93;;;16.90;99.90;;;;;;5018540;28;20215;-89
2022/05/19 00:28:35;;;;;;;4.78;4.28;;;16.90;99.90;;;;;;5021662;28;20174;-89
2022/05/19 00:31:01;;;;;;;4.57;4.17;;;16.90;99.90;;;;;;5025295;28;20224;-89
2022/05/19 00:33:27;;;;;;;4.60;3.87;;;16.80;99.90;;;;;;5021351;28;20206;-89
2022/05/19 00:35:53;;;;;;;4.77;4.03;;;16.70;99.90;;;;;;5021455;28;20209;-89
2022/05/19 00:38:19;;;;;;;4.87;4.00;;;16.60;99.90;;;;;;5017798;28;20187;-90
2022/05/19 00:40:51;;;;;;;5.90;4.00;;;16.60;99.90;;;;;;5019759;28;20206;-89
2022/05/19 00:43:40;;;;;;;4.77;4.03;;;16.60;99.90;;;;;;5020784;28;20185;-89
2022/05/19 00:46:24;;;;;;;4.90;4.10;;;16.50;99.90;;;;;;5037228;28;20213;-89
2022/05/19 00:48:55;;;;;;;5.77;3.90;;;16.40;99.90;;;;;;5037465;28;20320;-89
2022/05/19 00:51:33;;;;;;;5.20;4.20;;;16.50;99.90;;;;;;5020987;28;20181;-89
2022/05/19 00:53:59;;;;;;;4.73;3.90;;;16.50;99.90;;;;;;5020853;28;20179;-89
2022/05/19 00:56:35;;;;;;;4.80;4.30;;;16.50;99.90;;;;;;5020728;28;20208;-89
2022/05/19 00:59:08;;;;;;;4.80;4.30;;;16.50;99.90;;;;;;5037405;28;20199;-89
2022/05/19 01:01:38;;;;;;;9.23;4.40;;;16.40;99.90;;;;;;5021028;28;20170;-89
2022/05/19 01:04:14;;;;;;;4.30;3.90;;;16.20;99.90;;;;;;5020883;28;20186;-89
2022/05/19 01:06:43;;;;;;;4.00;3.70;;;16.10;99.90;;;;;;5026970;28;20200;-89
2022/05/19 01:09:12;;;;;;;4.60;4.20;;;16.00;99.90;;;;;;5030873;28;20186;-90
2022/05/19 01:11:38;;;;;;;5.60;4.30;;;15.80;99.90;;;;;;5016199;28;20186;-89
2022/05/19 01:14:06;;;;;;;4.30;3.90;;;15.70;99.90;;;;;;5027500;28;20182;-89
2022/05/19 01:16:32;;;;;;;5.13;4.63;;;15.70;99.90;;;;;;5036819;28;20285;-89
2022/05/19 01:18:59;;;;;;;5.00;4.50;;;15.60;99.90;;;;;;5024351;28;20186;-89
2022/05/19 01:21:29;;;;;;;5.33;4.83;;;15.50;99.90;;;;;;5037348;28;20184;-89
2022/05/19 01:24:20;;;;;;;5.20;3.97;;;15.50;99.90;;;;;;5036667;28;20178;-89
2022/05/19 01:26:50;;;;;;;5.70;4.33;;;15.60;99.90;;;;;;5027722;28;20257;-89
2022/05/19 01:29:19;;;;;;;4.27;3.87;;;15.60;99.90;;;;;;5016751;28;20185;-89
2022/05/19 01:31:50;;;;;;;4.40;4.00;;;15.60;99.90;;;;;;5022203;28;20188;-89
2022/05/19 01:34:18;;;;;;;4.93;4.10;;;15.60;99.90;;;;;;5036799;28;20170;-89
2022/05/19 01:36:44;;;;;;;5.03;3.93;;;15.50;99.90;;;;;;5033159;28;20202;-89
2022/05/19 01:39:21;;;;;;;5.17;4.00;;;15.50;99.90;;;;;;5024144;28;20220;-89
2022/05/19 01:41:56;;;;;;;4.77;3.80;;;15.40;99.90;;;;;;5019966;28;20181;-89
2022/05/19 01:44:45;;;;;;;4.57;4.07;;;15.40;99.90;;;;;;5009569;28;20205;-89
2022/05/19 01:47:11;;;;;;;5.43;4.03;;;15.50;99.90;;;;;;5020105;28;20198;-89
2022/05/19 01:49:56;;;;;;;5.07;4.23;;;15.50;99.90;;;;;;5033948;28;20240;-89
2022/05/19 01:52:32;;;;;;;5.03;4.60;;;15.30;99.90;;;;;;5019856;28;20206;-89
2022/05/19 01:55:16;;;;;;;5.67;4.27;;;15.30;99.90;;;;;;5016470;28;20660;-89
2022/05/19 01:57:42;;;;;;;4.87;4.37;;;15.30;99.90;;;;;;5019355;28;20189;-89
2022/05/19 02:00:18;;;;;;;4.40;4.00;;;15.30;99.90;;;;;;5016482;28;20175;-89
2022/05/19 02:02:47;;;;;;;5.30;4.00;;;15.30;99.90;;;;;;5035812;28;20185;-89
2022/05/19 02:05:28;;;;;;;4.53;4.00;;;15.30;99.90;;;;;;5019444;28;20190;-89
2022/05/19 02:07:57;;;;;;;5.43;4.43;;;15.40;99.90;;;;;;5035664;28;20213;-89
2022/05/19 02:10:36;;;;;;;5.63;4.10;;;15.30;99.90;;;;;;5025905;28;20178;-89
2022/05/19 02:13:04;;;;;;;6.43;4.50;;;15.30;99.90;;;;;;5032893;28;20241;-89
2022/05/19 02:15:37;;;;;;;4.27;3.87;;;15.10;99.90;;;;;;5019042;28;20412;-89
2022/05/19 02:18:03;;;;;;;5.90;3.90;;;15.10;99.90;;;;;;5035882;28;20194;-89
2022/05/19 02:20:31;;;;;;;4.80;4.37;;;15.00;99.90;;;;;;5016251;28;20179;-89
2022/05/19 02:22:58;;;;;;;5.13;4.63;;;14.90;99.90;;;;;;5031209;28;20196;-89
2022/05/19 02:25:23;;;;;;;4.57;4.07;;;14.90;99.90;;;;;;5035417;28;20190;-89
2022/05/19 02:27:57;;;;;;;4.90;4.40;;;14.80;99.90;;;;;;5019096;28;20189;-89
2022/05/19 02:30:27;;;;;;;4.53;3.90;;;14.80;99.90;;;;;;5019010;28;20192;-89
2022/05/19 02:32:53;;;;;;;6.90;4.80;;;14.80;99.90;;;;;;5019051;28;20662;-89
2022/05/19 02:35:20;;;;;;;6.17;4.20;;;14.80;99.90;;;;;;5034148;28;20186;-89
2022/05/19 02:37:47;;;;;;;5.70;4.07;;;14.90;99.90;;;;;;5017542;28;20193;-89
2022/05/19 02:40:16;;;;;;;5.30;4.10;;;14.90;99.90;;;;;;5018856;28;20215;-89
2022/05/19 02:42:42;;;;;;;6.13;4.20;;;14.80;99.90;;;;;;5015294;28;20297;-89
2022/05/19 02:45:10;;;;;;;4.83;4.40;;;14.70;99.90;;;;;;5017694;28;20190;-89
2022/05/19 02:47:36;;;;;;;5.50;3.93;;;14.50;99.90;;;;;;5018824;28;20198;-89
2022/05/19 02:50:02;;;;;;;4.63;4.20;;;14.50;99.90;;;;;;5019132;28;20178;-88
2022/05/19 02:52:28;;;;;;;5.20;4.70;;;14.50;99.90;;;;;;5018630;28;20205;-89
2022/05/19 02:55:11;;;;;;;6.07;4.37;;;14.50;99.90;;;;;;5034949;28;20185;-89
2022/05/19 02:57:37;;;;;;;5.23;4.07;;;14.50;99.90;;;;;;5030405;28;20179;-89
2022/05/19 03:00:12;;;;;;;4.20;3.80;;;14.50;99.90;;;;;;5018203;28;20178;-89
2022/05/19 03:02:39;;;;;;;5.23;4.33;;;14.60;99.90;;;;;;5027681;28;20188;-89
2022/05/19 03:05:06;;;;;;;5.33;4.40;;;14.60;99.90;;;;;;5034128;28;20276;-89
2022/05/19 03:07:32;;;;;;;4.80;4.20;;;14.60;99.90;;;;;;5018456;28;20210;-89
2022/05/19 03:09:58;;;;;;;4.73;4.20;;;14.70;99.90;;;;;;5018358;28;20182;-89
2022/05/19 03:12:23;;;;;;;4.57;4.03;;;14.70;99.90;;;;;;5033143;28;20205;-89
2022/05/19 03:14:49;;;;;;;4.70;4.20;;;14.60;99.90;;;;;;5016560;28;20297;-89
2022/05/19 03:17:15;;;;;;;4.40;4.00;;;14.60;99.90;;;;;;5018271;28;20217;-89
2022/05/19 03:19:41;;;;;;;5.13;4.20;;;14.70;99.90;;;;;;5018142;28;20182;-89
2022/05/19 03:22:07;;;;;;;4.87;4.10;;;14.80;99.90;;;;;;5018241;28;20185;-89
2022/05/19 03:24:34;;;;;;;6.23;4.47;;;14.80;99.90;;;;;;5018647;28;20193;-89
2022/05/19 03:27:00;;;;;;;5.83;4.77;;;14.70;99.90;;;;;;5031575;28;20217;-89
2022/05/19 03:29:26;;;;;;;5.07;4.57;;;14.60;99.90;;;;;;5029024;28;20198;-89
2022/05/19 03:31:52;;;;;;;5.70;4.40;;;14.60;99.90;;;;;;5016002;28;20282;-89
2022/05/19 03:34:18;;;;;;;4.40;4.00;;;14.50;99.90;;;;;;5018404;28;20260;-89
2022/05/19 03:36:45;;;;;;;7.10;4.60;;;14.40;99.90;;;;;;5030007;28;20293;-89
2022/05/19 03:39:12;;;;;;;5.63;4.20;;;14.30;99.90;;;;;;5025031;28;20179;-89
2022/05/19 03:41:38;;;;;;;6.27;4.17;;;14.30;99.90;;;;;;5013676;28;20189;-88
2022/05/19 03:44:04;;;;;;;4.33;4.03;;;14.30;99.90;;;;;;5007500;28;20196;-89
2022/05/19 03:46:30;;;;;;;5.57;4.27;;;14.30;99.90;;;;;;5023498;28;20201;-89
2022/05/19 03:48:56;;;;;;;5.30;4.27;;;14.20;99.90;;;;;;5018253;28;20178;-89
2022/05/19 03:51:25;;;;;;;6.67;4.33;;;14.20;99.90;;;;;;5022515;28;20630;-89
2022/05/19 03:53:52;;;;;;;6.23;4.33;;;14.20;99.90;;;;;;5022815;28;20232;-89
2022/05/19 03:56:19;;;;;;;4.60;4.20;;;14.30;99.90;;;;;;5022385;28;20197;-89
2022/05/19 03:58:48;;;;;;;4.77;4.33;;;14.40;99.90;;;;;;5022602;28;20178;-89
2022/05/19 04:01:27;;;;;;;8.00;4.50;;;14.40;99.90;;;;;;5025691;28;20657;-89
2022/05/19 04:03:53;;;;;;;5.47;4.57;;;14.30;99.90;;;;;;5023038;28;20195;-89
2022/05/19 04:06:19;;;;;;;4.43;4.00;;;14.40;99.90;;;;;;5022484;28;20194;-89
2022/05/19 04:08:48;;;;;;;5.93;4.63;;;14.40;99.90;;;;;;5030479;28;20177;-90
2022/05/19 04:11:14;;;;;;;5.53;4.87;;;14.40;99.90;;;;;;5032150;28;20190;-89
2022/05/19 04:13:41;;;;;;;6.13;4.93;;;14.50;99.90;;;;;;5022660;28;20204;-89
2022/05/19 04:16:07;;;;;;;5.43;4.90;;;14.50;99.90;;;;;;5034154;28;20210;-89
2022/05/19 04:18:53;;;;;;;5.80;4.47;;;14.50;99.90;;;;;;5002060;28;20202;-89
2022/05/19 04:21:19;;;;;;;5.20;4.70;;;14.60;99.90;;;;;;5034522;28;20186;-89
2022/05/19 04:23:45;;;;;;;5.00;4.60;;;14.60;99.90;;;;;;5019983;28;20197;-89
2022/05/19 04:26:11;;;;;;;7.37;4.70;;;14.60;99.90;;;;;;5021616;28;20202;-89
2022/05/19 04:28:37;;;;;;;5.87;4.40;;;14.70;99.90;;;;;;5022228;28;20629;-89
2022/05/19 04:31:03;;;;;;;6.97;5.10;;;14.70;99.90;;;;;;5033920;28;20174;-89
2022/05/19 04:33:29;;;;;;;5.50;4.43;;;14.80;99.90;;;;;;5035281;28;20206;-89
2022/05/19 04:35:55;;;;;;;7.10;4.53;;;14.80;99.90;;;;;;5022010;28;20284;-89
2022/05/19 04:38:22;;;;;;;4.80;4.40;;;14.90;99.90;;;;;;5018710;28;20262;-88
2022/05/19 04:40:49;;;;;;;4.90;4.40;;;14.90;99.90;;;;;;5035591;28;20300;-89
2022/05/19 04:43:21;;;;;;;5.20;4.70;;;14.90;99.90;;;;;;5022203;28;20169;-89
2022/05/19 04:45:49;;;;;;;5.60;4.60;;;15.00;99.90;;;;;;5009180;28;20213;-89
2022/05/19 04:48:15;;;;;;;5.37;4.63;;;14.90;99.90;;;;;;5018953;28;20193;-89
2022/05/19 04:51:04;;;;;;;5.03;4.20;;;14.90;99.90;;;;;;5019299;28;20185;-89
2022/05/19 04:53:30;;;;;;;5.90;4.47;;;14.90;99.90;;;;;;5034273;28;20593;-89
2022/05/19 04:55:56;;;;;;;5.97;4.93;;;14.90;99.90;;;;;;5026630;28;20202;-90
2022/05/19 04:58:23;;;;;;;5.07;4.57;;;14.90;99.90;;;;;;5020694;28;20174;-89
2022/05/19 05:00:50;;;;;;;6.10;4.27;;;15.00;99.90;;;;;;5018906;28;20182;-90
2022/05/19 05:03:16;;;;;;;6.73;4.87;;;15.10;99.90;;;;;;5026440;28;20189;-89
2022/05/19 05:05:42;;;;;;;5.17;4.73;;;15.20;99.90;;;;;;5037367;28;20248;-89
2022/05/19 05:08:08;;;;;;;5.67;4.50;;;15.30;99.90;;;;;;5022701;28;20170;-88
2022/05/19 05:10:34;;;;;;;6.73;5.10;;;15.50;99.90;;;;;;5021278;28;20228;-88
2022/05/19 05:13:12;;;;;;;5.10;4.53;;;15.60;99.90;;;;;;5021177;28;20212;-88
2022/05/19 05:15:40;;;;;;;5.10;4.60;;;15.70;99.90;;;;;;5021021;28;20194;-88
2022/05/19 05:18:07;;;;;;;5.57;5.07;;;15.80;99.90;;;;;;5027253;28;20210;-88
2022/05/19 05:20:36;;;;;;;6.00;4.73;;;15.80;99.90;;;;;;5001549;28;20217;-88
2022/05/19 05:23:03;;;;;;;5.00;4.60;;;15.80;99.90;;;;;;5012826;28;20174;-88
2022/05/19 05:25:31;;;;;;;7.97;4.47;;;15.80;99.90;;;;;;5016979;28;20336;-89
2022/05/19 05:27:57;;;;;;;5.00;4.50;;;16.00;99.90;;;;;;5021477;28;20178;-89
2022/05/19 05:30:24;;;;;;;5.27;4.33;;;16.10;99.90;;;;;;5020616;28;20181;-89
2022/05/19 05:32:50;;;;;;;5.53;5.00;;;16.30;99.90;;;;;;5017552;28;20332;-89
2022/05/19 05:35:16;;;;;;;6.13;4.47;;;16.30;99.90;;;;;;5011792;28;20615;-88
2022/05/19 05:37:43;;;;;;;6.67;4.67;;;16.40;99.90;;;;;;5008679;28;20179;-79
2022/05/19 05:40:10;;;;;;;6.13;4.83;;;16.50;99.90;;;;;;5059683;28;20174;-79
2022/05/19 05:42:44;;;;;;;8.53;4.73;;;16.60;99.90;;;;;;5023657;28;20185;-79
2022/05/19 05:45:22;;;;;;;6.50;5.00;;;16.70;99.90;;;;;;5040503;28;20247;-79
2022/05/19 05:47:51;;;;;;;4.87;4.47;;;16.80;99.90;;;;;;5043621;28;20177;-80
2022/05/19 05:50:17;;;;;;;8.47;5.27;;;16.90;99.90;;;;;;5035759;28;20201;-79
2022/05/19 05:52:43;;;;;;;6.27;5.47;;;16.90;99.90;;;;;;5026060;28;20220;-80
2022/05/19 05:55:09;;;;;;;6.33;5.73;;;17.00;99.90;;;;;;5032270;28;20221;-80
2022/05/19 05:57:35;;;;;;;5.97;5.40;;;17.00;99.90;;;;;;5054230;28;20178;-79
2022/05/19 06:00:03;;;;;;;5.03;4.53;;;17.10;99.90;;;;;;5031481;28;20174;-80
2022/05/19 06:02:38;;;;;;;6.00;5.40;;;17.20;99.90;;;;;;5043491;28;20565;-79
2022/05/19 06:05:06;;;;;;;6.07;5.47;;;17.30;99.90;;;;;;5036462;28;20193;-75
2022/05/19 06:07:32;;;;;;;5.87;5.30;;;17.40;99.90;;;;;;5020357;28;20209;-80
2022/05/19 06:09:58;;;;;;;6.03;4.93;;;17.60;99.90;;;;;;5031280;28;20187;-88
2022/05/19 06:12:25;;;;;;;5.10;4.47;;;17.80;99.90;;;;;;5035516;28;20206;-89
2022/05/19 06:14:56;;;;;;;8.40;5.03;;;18.00;99.90;;;;;;5019609;28;20180;-89
2022/05/19 06:17:23;;;;;;;5.38;4.88;;;18.10;99.90;;;;;;5025269;28;20217;-89
2022/05/19 06:19:49;;;;;;;8.88;4.95;;;18.20;99.90;;;;;;5006948;28;20220;-89
2022/05/19 06:22:15;;;;;;;4.82;4.32;;;18.30;99.90;;;;;;5020282;28;20174;-89
2022/05/19 06:24:41;;;;;;;5.30;4.50;;;18.50;99.90;;;;;;5026191;28;20185;-89
2022/05/19 06:27:36;;;;;;;6.43;4.68;;;18.50;99.90;;;;;;5019625;28;20204;-89
2022/05/19 06:30:04;;;;;;;5.53;4.50;;;18.60;99.90;;;;;;5016732;28;20189;-89
2022/05/19 06:32:31;;;;;;;5.53;4.20;;;18.80;99.90;;;;;;5019550;28;20202;-89
2022/05/19 06:34:57;;;;;;;6.38;4.40;;;19.00;99.90;;;;;;5019636;28;20177;-89
2022/05/19 06:37:23;;;;;;;5.18;4.68;;;19.20;99.90;;;;;;5019064;28;20202;-89
2022/05/19 06:39:49;;;;;;;5.50;4.38;;;19.40;99.90;;;;;;5019031;28;20210;-89
2022/05/19 06:42:14;;;;;;;6.70;4.75;;;19.50;99.90;;;;;;5017957;28;20259;-89
2022/05/19 06:44:44;;;;;;;5.55;4.28;;;19.60;99.90;;;;;;5019267;28;20193;-89
2022/05/19 06:47:23;;;;;;;6.20;5.15;;;19.70;99.90;;;;;;5019718;28;20666;-89
2022/05/19 06:49:51;;;;;;;8.52;5.18;;;19.80;99.90;;;;;;5018506;28;20218;-89
2022/05/19 06:52:20;;;;;;;5.57;5.00;;;19.90;99.90;;;;;;5035583;28;20681;-89
2022/05/19 06:54:51;;;;;;;4.80;4.40;;;20.10;99.90;;;;;;5019746;28;20204;-89
2022/05/19 06:57:19;;;;;;;5.47;4.95;;;20.20;99.90;;;;;;5014558;28;20214;-89
2022/05/19 06:59:47;;;;;;;5.72;4.65;;;20.30;99.90;;;;;;5016230;28;20205;-89
2022/05/19 07:02:13;;;;;;;4.80;4.30;;;20.50;99.90;;;;;;5022629;28;20193;-89
2022/05/19 07:04:41;;;;;;;6.07;4.72;;;20.70;99.90;;;;;;5019101;28;20259;-90
2022/05/19 07:07:07;;;;;;;5.43;4.32;;;20.80;99.90;;;;;;5015774;28;20202;-89
2022/05/19 07:09:36;;;;;;;5.43;4.40;;;20.90;99.90;;;;;;5015790;28;20189;-89
2022/05/19 07:12:04;;;;;;;5.20;4.05;;;20.90;99.90;;;;;;5017537;28;20181;-89
2022/05/19 07:14:32;;;;;;;7.93;4.88;;;20.90;99.90;;;;;;5035239;28;20261;-89
2022/05/19 07:16:57;;;;;;;6.20;4.30;;;21.00;99.90;;;;;;5013024;28;20235;-89
2022/05/19 07:22:15;;;;;;;4.75;3.78;;;21.30;99.90;;;;;;5027750;28;20174;-90
2022/05/19 07:24:40;;;;;;;16.15;7.60;;;21.50;99.90;;;;;;5032893;28;20205;-88
2022/05/19 07:27:09;;;;;;;8.13;4.80;;;21.70;99.90;;;;;;5015070;28;20207;-90
2022/05/19 07:29:35;;;;;;;12.32;4.90;;;21.80;99.90;;;;;;5015461;28;20178;-89
2022/05/19 07:32:01;;;;;;;4.53;3.35;;;21.90;99.90;;;;;;5018684;28;20197;-89
2022/05/19 07:34:30;;;;;;;4.78;3.45;;;22.10;99.90;;;;;;5013451;28;20247;-89
2022/05/19 07:36:57;;;;;;;4.82;3.90;;;22.00;99.90;;;;;;5017566;28;20205;-89
2022/05/19 07:39:24;;;;;;;3.50;3.20;;;22.10;99.90;;;;;;5018163;28;20174;-88
2022/05/19 07:41:55;;;;;;;3.60;3.30;;;22.30;99.90;;;;;;5015921;28;20316;-89
2022/05/19 07:44:23;;;;;;;3.45;3.15;;;22.40;99.90;;;;;;5018729;28;20192;-89
2022/05/19 07:46:49;;;;;;;4.13;3.42;;;22.40;99.90;;;;;;5017644;28;20209;-89
2022/05/19 07:49:15;;;;;;;4.75;3.22;;;22.40;99.90;;;;;;5013862;28;20186;-90
2022/05/19 07:51:42;;;;;;;4.65;3.58;;;22.40;99.90;;;;;;5017341;28;20189;-89
2022/05/19 07:54:18;;;;;;;4.18;3.78;;;22.50;99.90;;;;;;5028649;28;20217;-88
2022/05/19 07:56:44;;;;;;;3.90;2.97;;;22.60;99.90;;;;;;5008427;28;20206;-88
2022/05/19 07:59:11;;;;;;;4.70;3.15;;;22.80;99.90;;;;;;5035550;28;20178;-88
2022/05/19 08:01:38;;;;;;;7.45;4.93;;;23.00;99.90;;;;;;5050219;28;20178;-89
2022/05/19 08:04:05;;;;;;;5.75;3.50;;;23.30;99.90;;;;;;5015613;28;20190;-89
2022/05/19 08:06:33;;;;;;;3.75;3.28;;;23.50;99.90;;;;;;5018200;28;20202;-89
2022/05/19 08:09:00;;;;;;;3.53;3.22;;;23.70;99.90;;;;;;5014509;28;20189;-89
2022/05/19 08:11:27;;;;;;;3.83;3.50;;;23.80;99.90;;;;;;5050702;28;20185;-89
2022/05/19 08:16:38;;;;;;;5.72;3.50;;;23.90;99.90;;;;;;5045314;28;20190;-89
2022/05/19 08:19:05;;;;;;;3.47;3.17;;;24.10;99.90;;;;;;5011197;28;20286;-89
2022/05/19 08:21:32;;;;;;;5.13;3.38;;;24.40;99.90;;;;;;5018688;28;20183;-91
2022/05/19 08:23:58;;;;;;;5.85;3.38;;;24.60;99.90;;;;;;5019323;28;20200;-88
2022/05/19 08:26:24;;;;;;;4.25;3.80;;;24.80;99.90;;;;;;5031218;28;20198;-84
2022/05/19 08:28:53;;;;;;;4.60;3.13;;;24.90;99.90;;;;;;5012844;28;20170;-87
2022/05/19 08:31:23;;;;;;;3.05;2.75;;;25.00;99.90;;;;;;5010364;28;20178;-87
2022/05/19 08:33:54;;;;;;;5.25;3.28;;;25.30;99.90;;;;;;5034248;28;20302;-88
2022/05/19 08:36:25;;;;;;;7.18;3.33;;;25.40;99.90;;;;;;5021337;28;20205;-87
2022/05/19 08:38:56;;;;;;;5.50;2.85;;;25.50;99.90;;;;;;5024765;28;20173;-88
2022/05/19 08:41:47;;;;;;;6.57;3.40;;;25.50;99.90;;;;;;5032502;28;20174;-88
2022/05/19 08:44:24;;;;;;;5.55;3.72;;;25.70;99.90;;;;;;5017939;28;20182;-88
2022/05/19 08:46:57;;;;;;;5.95;3.72;;;25.70;99.90;;;;;;5027252;28;20194;-88
2022/05/19 08:49:32;;;;;;;3.70;3.15;;;25.70;99.90;;;;;;5023106;28;20174;-88
2022/05/19 08:52:25;;;;;;;4.28;3.10;;;25.60;99.90;;;;;;5018242;28;20205;-88
2022/05/19 08:54:55;;;;;;;7.43;3.63;;;25.80;99.90;;;;;;5013367;28;20385;-88
2022/05/19 08:57:30;;;;;;;4.78;3.78;;;25.80;99.90;;;;;;5021511;28;20210;-87
2022/05/19 09:00:33;;;;;;;6.13;3.80;;;25.90;99.90;;;;;;5035393;28;20178;-88
2022/05/19 09:03:14;;;;;;;4.28;3.42;;;26.00;99.90;;;;;;5033713;28;20165;-88
2022/05/19 09:06:17;;;;;;;4.85;3.50;;;26.20;99.90;;;;;;5019165;28;20293;-88
2022/05/19 09:09:11;;;;;;;6.25;3.70;;;26.50;99.90;;;;;;5020710;28;20186;-88
2022/05/19 09:11:51;;;;;;;6.10;3.25;;;26.80;99.90;;;;;;5009532;28;20269;-88
2022/05/19 09:14:20;;;;;;;3.90;3.30;;;27.00;99.90;;;;;;5032001;28;20214;-89
2022/05/19 09:16:48;;;;;;;4.68;3.20;;;27.10;99.90;;;;;;5017123;28;20206;-89
2022/05/19 09:19:24;;;;;;;4.13;3.53;;;27.20;99.90;;;;;;5004555;28;20189;-88
2022/05/19 09:22:07;;;;;;;4.20;3.30;;;27.70;99.90;;;;;;5020216;28;20197;-88
2022/05/19 09:24:34;;;;;;;5.18;3.45;;;27.90;99.90;;;;;;5020487;28;20194;-88
2022/05/19 09:27:01;;;;;;;4.88;3.20;;;27.90;99.90;;;;;;5020472;28;20206;-89
2022/05/19 09:29:48;;;;;;;7.25;3.70;;;28.10;99.90;;;;;;5028068;28;20189;-89
2022/05/19 09:32:31;;;;;;;4.20;3.22;;;28.30;99.90;;;;;;5017689;28;20209;-89
2022/05/19 09:35:19;;;;;;;6.05;3.20;;;28.30;99.90;;;;;;5036347;28;20182;-88
2022/05/19 09:38:00;;;;;;;4.65;3.08;;;28.50;99.90;;;;;;5031365;28;20269;-88
2022/05/19 09:40:33;;;;;;;4.28;3.40;;;28.50;99.90;;;;;;5032786;28;20268;-88
2022/05/19 09:43:13;;;;;;;5.70;3.53;;;28.60;99.90;;;;;;5036430;28;20188;-88
2022/05/19 09:46:03;;;;;;;3.35;3.05;;;28.60;99.90;;;;;;5019621;28;20247;-89
2022/05/19 09:48:33;;;;;;;6.68;3.58;;;28.60;99.90;;;;;;5036378;28;20190;-88
2022/05/19 09:51:11;;;;;;;6.65;3.40;;;28.80;99.90;;;;;;5020027;28;20190;-89
2022/05/19 09:53:59;;;;;;;6.28;3.20;;;28.90;99.90;;;;;;5037032;28;20200;-89
2022/05/19 09:56:50;;;;;;;5.13;3.17;;;29.10;99.90;;;;;;5030366;28;20202;-88
2022/05/19 09:59:46;;;;;;;5.53;3.10;;;29.30;99.90;;;;;;5008293;28;20243;-89
2022/05/19 10:02:17;;;;;;;6.47;3.65;;;29.50;97.60;;;;;;5024148;28;20205;-89
2022/05/19 10:04:50;;;;;;;4.35;3.17;;;29.50;97.50;;;;;;5017003;28;20187;-89
2022/05/19 10:07:31;;;;;;;7.45;3.10;;;29.60;97.00;;;;;;5031458;28;20220;-88
2022/05/19 10:10:03;;;;;;;3.42;2.95;;;29.50;96.30;;;;;;5020256;28;20209;-89
2022/05/19 10:12:42;;;;;;;6.60;2.92;;;29.50;97.00;;;;;;5035499;28;20210;-88
2022/05/19 10:15:14;;;;;;;4.13;2.72;;;29.50;96.90;;;;;;5058672;28;20190;-89
2022/05/19 10:17:52;;;;;;;4.97;3.00;;;29.60;96.90;;;;;;5044916;28;20256;-90
2022/05/19 10:20:18;;;;;;;3.35;3.05;;;29.70;96.00;;;;;;5026333;28;20201;-89
2022/05/19 10:23:14;;;;;;;7.28;3.80;;;29.70;95.40;;;;;;5019941;28;20182;-89
2022/05/19 10:25:58;;;;;;;5.05;2.80;;;29.80;96.50;;;;;;5032477;28;20206;-88
2022/05/19 10:32:07;;;;;;;4.78;2.60;;;29.90;94.70;;;;;;5034815;28;20667;-89
2022/05/19 10:34:36;;;;;;;2.85;2.65;;;30.30;94.90;;;;;;5012031;28;20594;-89
2022/05/19 10:37:10;;;;;;;3.08;2.75;;;30.10;93.80;;;;;;5018924;28;20202;-88
2022/05/19 10:39:42;;;;;;;3.50;2.90;;;30.30;94.50;;;;;;5022639;28;20184;-89
2022/05/19 10:42:46;;;;;;;4.72;2.90;;;30.50;94.60;;;;;;5032266;28;20174;-89
2022/05/19 10:45:17;;;;;;;4.47;2.67;;;30.70;94.30;;;;;;5055070;28;20186;-89
2022/05/19 10:48:12;;;;;;;8.30;3.13;;;30.70;92.80;;;;;;5018330;28;20194;-88
2022/05/19 10:50:58;;;;;;;4.38;2.78;;;30.90;93.10;;;;;;5044240;28;20182;-89
2022/05/19 10:53:51;;;;;;;3.13;2.80;;;31.00;92.40;;;;;;5018881;28;20206;-89
2022/05/19 10:56:44;;;;;;;4.63;2.90;;;31.20;91.90;;;;;;5024603;28;20194;-88
2022/05/19 10:59:33;;;;;;;5.50;2.95;;;31.30;92.60;;;;;;5031478;28;20170;-89
2022/05/19 11:02:30;;;;;;;5.47;2.97;;;31.30;91.70;;;;;;5000739;28;20229;-89
2022/05/19 11:05:27;;;;;;;7.22;2.95;;;31.30;91.50;;;;;;5035098;28;20181;-89
2022/05/19 11:08:18;;;;;;;3.47;2.55;;;31.40;91.70;;;;;;5023979;28;20215;-89
2022/05/19 11:10:54;;;;;;;6.95;2.80;;;31.60;90.60;;;;;;5030124;28;20181;-89
2022/05/19 11:13:51;;;;;;;3.28;2.42;;;31.70;88.70;;;;;;5023924;28;20194;-90
2022/05/19 11:16:42;;;;;;;5.88;2.85;;;31.80;87.30;;;;;;4991732;28;20212;-89
2022/05/19 11:19:50;;;;;;;4.82;2.53;;;31.60;87.70;;;;;;5028473;28;20216;-89
2022/05/19 11:22:23;;;;;;;6.72;3.28;;;31.50;87.30;;;;;;4952982;28;20260;-89
2022/05/19 11:27:58;;;;;;;6.60;3.03;;;31.70;86.70;;;;;;5009043;28;20185;-88
2022/05/19 11:30:36;;;;;;;7.75;3.45;;;31.70;84.90;;;;;;5038239;28;20173;-89
2022/05/19 11:33:07;;;;;;;6.18;2.95;;;31.60;85.80;;;;;;5055080;28;20226;-89
2022/05/19 11:35:46;;;;;;;5.25;2.85;;;31.60;84.40;;;;;;5038051;28;20292;-89
2022/05/19 11:38:22;;;;;;;4.22;3.13;;;31.80;84.10;;;;;;5038589;28;20165;-89
2022/05/19 11:41:35;;;;;;;6.47;2.78;;;32.00;83.10;;;;;;5037171;28;20568;-89
2022/05/19 11:44:25;;;;;;;4.63;2.63;;;31.90;82.10;;;;;;4998547;28;20308;-89
2022/05/19 11:55:12;;;;;;;3.88;2.53;;;31.70;80.00;;;;;;5011762;28;20202;-89
2022/05/19 11:55:47;;;;;;;6.40;2.63;;;31.80;80.40;;;;;;5034776;28;20263;-89
2022/05/19 11:58:29;;;;;;;5.22;2.70;;;31.80;79.80;;;;;;5028740;28;20205;-88
2022/05/19 12:01:19;;;;;;;4.63;2.30;;;31.90;79.80;;;;;;5017838;28;20204;-89
2022/05/19 12:03:51;;;;;;;3.78;2.40;;;32.10;79.00;;;;;;4998694;28;20175;-88
2022/05/19 12:06:26;;;;;;;4.47;2.80;;;32.50;80.00;;;;;;4998318;28;20671;-89
2022/05/19 12:08:52;;;;;;;3.20;2.50;;;32.40;79.80;;;;;;4998074;28;20242;-89
2022/05/19 12:11:20;;;;;;;8.10;2.78;;;32.50;79.10;;;;;;5000474;28;20178;-89
2022/05/19 12:14:09;;;;;;;5.45;2.90;;;32.60;80.00;;;;;;5003007;28;20335;-89
2022/05/19 12:16:48;;;;;;;3.58;2.72;;;32.80;79.10;;;;;;5022037;28;20189;-89
2022/05/19 12:19:36;;;;;;;5.75;3.10;;;32.50;80.30;;;;;;5021942;28;20181;-89
2022/05/19 12:22:05;;;;;;;4.80;2.83;;;32.50;76.70;;;;;;5054860;28;20173;-88
2022/05/19 12:24:51;;;;;;;3.85;2.70;;;32.50;77.00;;;;;;5054897;28;20178;-89
2022/05/19 12:27:24;;;;;;;4.07;2.80;;;32.50;80.80;;;;;;5054659;28;20226;-89
2022/05/19 12:31:56;;;;;;;5.40;2.83;;;32.60;78.10;;;;;;5071332;28;20185;-89
2022/05/19 12:33:15;;;;;;;3.85;2.95;;;32.70;78.30;;;;;;5059836;28;20217;-89
2022/05/19 12:35:47;;;;;;;4.15;2.80;;;32.70;78.50;;;;;;5022710;28;20221;-89
2022/05/19 12:38:35;;;;;;;6.95;2.88;;;32.80;79.30;;;;;;5021728;28;20177;-89
2022/05/19 12:41:08;;;;;;;4.78;2.60;;;32.80;78.20;;;;;;5037565;28;20189;-89
2022/05/19 12:43:38;;;;;;;3.95;2.47;;;32.80;77.60;;;;;;5008628;28;20229;-89
2022/05/19 12:46:33;;;;;;;5.75;3.03;;;32.60;77.00;;;;;;5001707;28;20195;-89
2022/05/19 12:49:20;;;;;;;4.57;2.60;;;32.40;77.20;;;;;;5000978;28;20221;-89
2022/05/19 12:52:00;;;;;;;7.05;2.63;;;32.40;77.20;;;;;;5000910;28;20167;-89
2022/05/19 12:54:30;;;;;;;6.65;2.75;;;32.20;78.70;;;;;;5001504;28;20230;-90
2022/05/19 12:56:58;;;;;;;6.47;3.22;;;32.20;77.90;;;;;;5022417;28;20244;-89
2022/05/19 12:59:36;;;;;;;4.13;2.90;;;32.20;78.00;;;;;;5037170;28;20208;-89
2022/05/19 13:02:09;;;;;;;6.93;3.00;;;32.20;80.00;;;;;;5021092;28;20174;-90
2022/05/19 13:04:45;;;;;;;5.60;2.80;;;32.20;78.50;;;;;;5019762;28;20237;-89
2022/05/19 13:07:38;;;;;;;5.05;2.75;;;32.40;78.70;;;;;;5000838;28;20202;-90
2022/05/19 13:10:34;;;;;;;7.53;3.00;;;32.70;82.50;;;;;;5008600;28;20158;-90
2022/05/19 13:13:27;;;;;;;5.25;2.78;;;32.70;77.70;;;;;;5021848;28;20205;-90
2022/05/19 13:16:00;;;;;;;5.38;2.80;;;33.00;78.30;;;;;;4998048;28;20256;-89
2022/05/19 13:18:36;;;;;;;4.60;2.80;;;33.20;80.30;;;;;;5005854;28;20190;-89
2022/05/19 13:21:13;;;;;;;4.32;2.50;;;33.30;79.90;;;;;;5001503;28;20170;-89
2022/05/19 13:23:42;;;;;;;4.90;2.75;;;33.00;76.50;;;;;;5001133;28;20175;-89
2022/05/19 13:26:28;;;;;;;5.68;2.78;;;32.80;77.30;;;;;;5001260;28;20251;-89
2022/05/19 13:31:54;;;;;;;5.43;2.80;;;32.90;78.00;;;;;;5031382;28;20186;-89
2022/05/19 13:34:20;;;;;;;4.32;2.45;;;32.80;79.50;;;;;;5008757;28;20202;-89
2022/05/19 13:36:59;;;;;;;5.90;2.72;;;33.00;79.10;;;;;;5037205;28;20194;-89
2022/05/19 13:39:27;;;;;;;6.97;2.78;;;33.00;77.20;;;;;;5036301;28;20256;-89